createdAt,value
2023-03-03T00:02:14.240Z,57.54
2023-03-03T00:04:42.044Z,57.84
2023-03-03T00:07:09.595Z,57.95
2023-03-03T00:09:36.994Z,57.41
2023-03-03T00:12:26.481Z,57.36
2023-03-03T00:14:54.562Z,57.22
2023-03-03T00:17:25.628Z,57.96
2023-03-03T00:19:53.760Z,57.74
2023-03-03T00:22:30.307Z,57.18
2023-03-03T00:25:29.053Z,58.91
2023-03-03T00:28:01.540Z,59.02
2023-03-03T00:30:29.473Z,59.73
2023-03-03T00:32:57.007Z,59.29
2023-03-03T00:35:35.742Z,59.71
2023-03-03T00:38:14.806Z,60.19
2023-03-03T00:40:42.752Z,60.23
2023-03-03T00:43:23.798Z,59.76
2023-03-03T00:45:51.809Z,59.60
2023-03-03T00:48:23.650Z,59.75
2023-03-03T00:50:53.132Z,58.71
2023-03-03T00:53:22.464Z,58.77
2023-03-03T00:55:51.224Z,59.04
2023-03-03T00:58:21.629Z,59.52
2023-03-03T01:00:51.707Z,59.31
2023-03-03T01:03:22.431Z,59.21
2023-03-03T01:05:50.569Z,58.86
2023-03-03T01:08:19.258Z,58.79
2023-03-03T01:10:52.977Z,58.97
2023-03-03T01:13:24.079Z,58.89
2023-03-03T01:15:52.719Z,58.59
2023-03-03T01:18:20.767Z,58.99
2023-03-03T01:20:48.640Z,58.61
2023-03-03T01:23:16.033Z,59.07
2023-03-03T01:25:43.440Z,58.85
2023-03-03T01:28:11.427Z,58.89
2023-03-03T01:30:39.455Z,59.11
2023-03-03T01:33:07.195Z,58.91
2023-03-03T01:35:36.671Z,58.99
2023-03-03T01:38:04.183Z,59.35
2023-03-03T01:40:31.790Z,59.19
2023-03-03T01:43:01.266Z,59.40
2023-03-03T01:45:31.254Z,59.38
2023-03-03T01:48:05.498Z,59.75
2023-03-03T01:50:37.565Z,59.47
2023-03-03T01:53:07.144Z,59.46
2023-03-03T01:55:37.766Z,59.76
2023-03-03T01:58:10.814Z,59.49
2023-03-03T02:00:41.614Z,59.59
2023-03-03T02:03:10.033Z,59.55
2023-03-03T02:05:37.915Z,59.55
2023-03-03T02:08:05.716Z,59.39
2023-03-03T02:10:36.325Z,59.54
2023-03-03T02:13:04.915Z,59.47
2023-03-03T02:15:37.268Z,59.90
2023-03-03T02:18:12.850Z,60.02
2023-03-03T02:20:43.538Z,59.44
2023-03-03T02:23:33.126Z,59.76
2023-03-03T02:26:13.705Z,60.52
2023-03-03T02:28:42.664Z,60.08
2023-03-03T02:31:14.337Z,59.63
2023-03-03T02:33:43.817Z,59.94
2023-03-03T02:36:13.862Z,60.15
2023-03-03T02:38:44.552Z,59.82
2023-03-03T02:41:28.184Z,59.55
2023-03-03T02:44:02.438Z,58.58
2023-03-03T02:46:39.832Z,59.44
2023-03-03T02:49:08.730Z,60.24
2023-03-03T02:51:36.793Z,60.25
2023-03-03T02:54:05.607Z,59.90
2023-03-03T02:56:33.688Z,60.05
2023-03-03T02:59:01.736Z,60.11
2023-03-03T03:01:32.170Z,60.01
2023-03-03T03:03:59.958Z,60.19
2023-03-03T03:06:28.085Z,60.15
2023-03-03T03:08:56.305Z,60.10
2023-03-03T03:11:24.068Z,60.10
2023-03-03T03:13:52.036Z,60.54
2023-03-03T03:16:19.683Z,60.21
2023-03-03T03:18:47.339Z,59.91
2023-03-03T03:21:15.332Z,60.23
2023-03-03T03:23:42.991Z,60.41
2023-03-03T03:26:12.415Z,60.24
2023-03-03T03:28:40.249Z,59.98
2023-03-03T03:31:09.802Z,59.92
2023-03-03T03:33:37.850Z,60.11
2023-03-03T03:36:06.461Z,59.99
2023-03-03T03:38:34.758Z,60.29
2023-03-03T03:41:03.103Z,60.17
2023-03-03T03:43:31.180Z,59.95
2023-03-03T03:45:58.984Z,59.92
2023-03-03T03:48:27.119Z,59.95
2023-03-03T03:50:56.130Z,60.19
2023-03-03T03:53:23.896Z,59.94
2023-03-03T03:55:52.014Z,59.83
2023-03-03T03:58:19.906Z,59.98
2023-03-03T04:00:48.653Z,60.21
2023-03-03T04:03:16.757Z,60.22
2023-03-03T04:05:44.703Z,60.26
2023-03-03T04:08:13.176Z,60.28
2023-03-03T04:10:40.990Z,60.14
2023-03-03T04:13:08.522Z,60.17
2023-03-03T04:15:36.363Z,59.88
2023-03-03T04:18:04.669Z,60.22
2023-03-03T04:20:32.219Z,60.03
2023-03-03T04:22:59.707Z,59.89
2023-03-03T04:25:27.491Z,60.18
2023-03-03T04:27:55.087Z,59.70
2023-03-03T04:30:23.035Z,59.87
2023-03-03T04:32:51.292Z,59.78
2023-03-03T04:35:19.788Z,59.69
2023-03-03T04:37:47.402Z,59.67
2023-03-03T04:40:17.299Z,59.59
2023-03-03T04:42:46.075Z,59.52
2023-03-03T04:45:13.855Z,59.61
2023-03-03T04:47:41.800Z,59.83
2023-03-03T04:50:11.027Z,59.59
2023-03-03T04:52:38.668Z,59.86
2023-03-03T04:55:10.351Z,59.82
2023-03-03T04:57:38.895Z,59.89
2023-03-03T05:00:07.626Z,59.69
2023-03-03T05:05:04.341Z,59.63
2023-03-03T05:07:32.184Z,59.69
2023-03-03T05:09:59.796Z,59.73
2023-03-03T05:12:27.360Z,60.25
2023-03-03T05:14:55.241Z,59.78
2023-03-03T05:17:23.021Z,59.92
2023-03-03T05:19:50.403Z,59.76
2023-03-03T05:22:18.352Z,59.95
2023-03-03T05:24:49.136Z,59.77
2023-03-03T05:27:17.106Z,59.64
2023-03-03T05:29:44.935Z,59.66
2023-03-03T05:32:12.389Z,59.69
2023-03-03T05:34:39.962Z,59.72
2023-03-03T05:39:36.827Z,59.79
2023-03-03T05:42:04.572Z,59.79
2023-03-03T05:44:32.404Z,59.84
2023-03-03T05:46:59.788Z,59.79
2023-03-03T05:49:27.578Z,59.91
2023-03-03T05:51:55.283Z,60.01
2023-03-03T05:54:22.840Z,58.92
2023-03-03T05:56:50.352Z,59.05
2023-03-03T05:59:19.347Z,59.60
2023-03-03T06:01:46.986Z,59.88
2023-03-03T06:04:14.786Z,59.99
2023-03-03T06:06:42.347Z,60.19
2023-03-03T06:09:09.861Z,60.02
2023-03-03T06:11:37.713Z,60.20
2023-03-03T06:14:05.572Z,59.89
2023-03-03T06:16:32.997Z,60.12
2023-03-03T06:19:01.442Z,60.35
2023-03-03T06:21:30.040Z,60.12
2023-03-03T06:23:57.744Z,60.07
2023-03-03T06:26:25.679Z,60.19
2023-03-03T06:28:55.457Z,59.27
2023-03-03T06:31:23.124Z,58.50
2023-03-03T06:33:51.578Z,58.76
2023-03-03T06:36:19.253Z,59.12
2023-03-03T06:38:46.919Z,59.90
2023-03-03T06:41:14.770Z,60.24
2023-03-03T06:43:42.307Z,60.37
2023-03-03T06:46:09.941Z,61.66
2023-03-03T06:48:37.641Z,61.09
2023-03-03T06:51:20.706Z,61.54
2023-03-03T06:53:50.312Z,61.50
2023-03-03T06:56:18.592Z,60.31
2023-03-03T06:58:46.183Z,59.58
2023-03-03T07:01:17.352Z,59.86
2023-03-03T07:03:44.774Z,60.16
2023-03-03T07:06:32.435Z,59.26
2023-03-03T07:09:01.227Z,58.88
2023-03-03T07:11:31.422Z,59.66
2023-03-03T07:13:58.880Z,59.41
2023-03-03T07:16:28.190Z,59.25
2023-03-03T07:18:57.851Z,59.30
2023-03-03T07:21:32.161Z,58.81
2023-03-03T07:24:02.066Z,58.94
2023-03-03T07:26:32.972Z,58.74
2023-03-03T07:29:23.477Z,58.32
2023-03-03T07:31:51.423Z,58.03
2023-03-03T07:34:27.750Z,57.67
2023-03-03T07:37:01.247Z,57.23
2023-03-03T07:39:32.295Z,56.88
2023-03-03T07:42:09.604Z,55.61
2023-03-03T07:44:38.121Z,55.09
2023-03-03T07:47:26.983Z,55.44
2023-03-03T07:49:57.224Z,55.71
2023-03-03T07:52:43.158Z,55.91
2023-03-03T07:55:26.002Z,56.43
2023-03-03T07:57:59.090Z,56.69
2023-03-03T08:00:30.359Z,56.01
2023-03-03T08:03:01.243Z,57.03
2023-03-03T08:05:35.993Z,56.20
2023-03-03T08:08:31.695Z,55.96
2023-03-03T08:11:03.345Z,56.56
2023-03-03T08:13:34.038Z,57.90
2023-03-03T08:16:11.567Z,57.82
2023-03-03T08:18:47.937Z,57.42
2023-03-03T08:21:20.541Z,57.80
2023-03-03T08:23:53.322Z,57.43
2023-03-03T08:26:22.193Z,57.35
2023-03-03T08:28:50.557Z,57.40
2023-03-03T08:31:30.800Z,57.75
2023-03-03T08:34:05.997Z,57.91
2023-03-03T08:36:34.781Z,59.25
2023-03-03T08:39:04.377Z,59.00
2023-03-03T08:41:32.233Z,57.98
2023-03-03T08:43:59.895Z,57.21
2023-03-03T08:46:28.853Z,57.22
2023-03-03T08:48:56.759Z,57.85
2023-03-03T08:51:25.284Z,57.50
2023-03-03T08:53:52.972Z,58.01
2023-03-03T08:56:20.735Z,56.90
2023-03-03T08:59:03.808Z,57.25
2023-03-03T09:01:32.698Z,57.68
2023-03-03T09:04:00.641Z,57.59
2023-03-03T09:06:28.275Z,56.47
2023-03-03T09:08:55.966Z,55.78
2023-03-03T09:11:27.583Z,54.99
2023-03-03T09:14:06.786Z,54.98
2023-03-03T09:16:38.985Z,55.46
2023-03-03T09:19:23.490Z,55.07
2023-03-03T09:21:54.730Z,55.42
2023-03-03T09:24:32.037Z,54.99
2023-03-03T09:27:00.019Z,55.54
2023-03-03T09:29:29.606Z,55.50
2023-03-03T09:32:00.496Z,55.22
2023-03-03T09:34:37.557Z,55.09
2023-03-03T09:37:24.722Z,55.53
2023-03-03T09:39:57.566Z,54.30
2023-03-03T09:42:42.954Z,53.16
2023-03-03T09:45:27.653Z,54.06
2023-03-03T09:48:23.708Z,53.45
2023-03-03T09:51:07.053Z,53.80
2023-03-03T09:54:03.940Z,54.05
2023-03-03T09:56:39.878Z,53.99
2023-03-03T09:59:15.165Z,51.68
2023-03-03T10:02:06.560Z,51.41
2023-03-03T10:04:57.560Z,50.36
2023-03-03T10:07:39.486Z,50.87
2023-03-03T10:10:39.723Z,49.57
2023-03-03T10:13:30.778Z,50.43
2023-03-03T10:16:37.353Z,47.66
2023-03-03T10:19:14.034Z,47.76
2023-03-03T10:22:20.687Z,48.50
2023-03-03T10:25:00.796Z,47.14
2023-03-03T10:27:43.701Z,45.67
2023-03-03T10:30:36.994Z,46.05
2023-03-03T10:33:14.291Z,46.41
2023-03-03T10:36:07.341Z,46.56
2023-03-03T10:39:17.394Z,45.23
2023-03-03T10:42:03.898Z,42.39
2023-03-03T10:45:23.069Z,43.69
2023-03-03T10:48:32.441Z,45.69
2023-03-03T10:51:18.612Z,43.82
2023-03-03T10:53:59.760Z,43.08
2023-03-03T10:56:52.770Z,45.70
2023-03-03T10:59:42.214Z,46.31
2023-03-03T11:02:12.898Z,43.47
2023-03-03T11:05:05.312Z,44.59
2023-03-03T11:07:49.622Z,45.64
2023-03-03T11:10:25.922Z,44.58
2023-03-03T11:13:19.326Z,43.77
2023-03-03T11:15:56.265Z,45.49
2023-03-03T11:18:49.510Z,44.08
2023-03-03T11:21:26.710Z,43.23
2023-03-03T11:24:12.852Z,44.34
2023-03-03T11:27:05.890Z,43.36
2023-03-03T11:30:04.256Z,42.87
2023-03-03T11:32:34.947Z,43.74
2023-03-03T11:35:21.357Z,43.69
2023-03-03T11:38:01.221Z,45.38
2023-03-03T11:40:38.202Z,43.62
2023-03-03T11:46:00.769Z,44.00
2023-03-03T11:48:41.875Z,42.54
2023-03-03T11:51:23.283Z,40.37
2023-03-03T11:53:57.781Z,42.35
2023-03-03T11:59:35.000Z,41.70
2023-03-03T12:05:50.575Z,41.03
2023-03-03T12:08:28.473Z,41.03
2023-03-03T12:11:04.890Z,41.96
2023-03-03T12:20:46.416Z,42.58
2023-03-03T12:23:47.343Z,42.58
2023-03-03T12:29:06.846Z,40.14
2023-03-03T12:31:47.726Z,40.14
2023-03-03T12:34:23.365Z,41.13
2023-03-03T12:37:10.461Z,40.75
2023-03-03T12:43:38.042Z,40.30
2023-03-03T12:46:29.350Z,40.30
2023-03-03T12:52:34.096Z,39.21
2023-03-03T12:58:03.111Z,35.92
2023-03-03T13:00:48.093Z,35.92
2023-03-03T13:06:20.570Z,35.83
2023-03-03T13:12:08.763Z,37.24
2023-03-03T13:14:57.654Z,38.35
2023-03-03T13:23:22.364Z,37.36
2023-03-03T13:28:43.150Z,38.20
2023-03-03T13:32:41.629Z,38.06
2023-03-03T13:38:30.200Z,39.82
2023-03-03T13:41:01.527Z,40.56
2023-03-03T13:49:41.918Z,40.58
2023-03-03T13:52:12.541Z,40.58
2023-03-03T13:54:50.108Z,40.06
2023-03-03T13:57:20.722Z,38.92
2023-03-03T13:59:57.328Z,39.24
2023-03-03T14:02:46.839Z,38.95
2023-03-03T14:05:27.135Z,38.22
2023-03-03T14:08:00.494Z,37.81
2023-03-03T14:10:43.253Z,37.97
2023-03-03T14:13:20.290Z,38.43
2023-03-03T14:16:06.223Z,38.49
2023-03-03T14:19:02.817Z,39.01
2023-03-03T14:21:36.515Z,37.46
2023-03-03T14:24:20.582Z,37.53
2023-03-03T14:26:50.737Z,36.78
2023-03-03T14:29:30.744Z,37.21
2023-03-03T14:32:03.518Z,37.24
2023-03-03T14:34:41.498Z,37.10
2023-03-03T14:37:24.935Z,38.83
2023-03-03T14:40:17.247Z,36.92
2023-03-03T14:42:54.835Z,37.86
2023-03-03T14:45:33.854Z,37.76
2023-03-03T14:48:12.362Z,38.14
2023-03-03T14:50:48.616Z,36.17
2023-03-03T14:53:22.396Z,37.82
2023-03-03T14:55:51.821Z,38.96
2023-03-03T14:58:26.140Z,36.63
2023-03-03T15:01:15.451Z,36.72
2023-03-03T15:03:49.281Z,36.92
2023-03-03T15:06:39.395Z,37.38
2023-03-03T15:09:27.869Z,38.22
2023-03-03T15:11:58.311Z,37.29
2023-03-03T15:16:59.961Z,37.96
2023-03-03T15:19:27.547Z,38.88
2023-03-03T15:36:31.989Z,37.96
2023-03-03T15:42:24.380Z,40.26
2023-03-03T15:45:02.114Z,39.76
2023-03-03T15:48:37.487Z,37.53
2023-03-03T15:51:20.934Z,37.53
2023-03-03T15:54:06.956Z,40.02
2023-03-03T15:56:58.466Z,38.78
2023-03-03T16:02:22.792Z,39.11
2023-03-03T16:05:00.332Z,39.11
2023-03-03T16:07:41.495Z,40.05
2023-03-03T16:13:42.536Z,40.13
2023-03-03T16:16:28.973Z,39.66
2023-03-03T16:22:13.045Z,38.91
2023-03-03T16:28:02.451Z,40.37
2023-03-03T16:33:44.488Z,39.49
2023-03-03T16:39:06.411Z,39.87
2023-03-03T16:41:48.011Z,40.12
2023-03-03T16:50:45.094Z,39.87
2023-03-03T16:53:31.941Z,40.38
2023-03-03T16:56:22.548Z,40.33
2023-03-03T16:59:18.375Z,40.51
2023-03-03T17:02:04.198Z,40.35
2023-03-03T17:04:42.751Z,40.79
2023-03-03T17:07:30.879Z,40.10
2023-03-03T17:10:29.905Z,40.81
2023-03-03T17:13:03.726Z,40.92
2023-03-03T17:16:03.299Z,41.28
2023-03-03T17:18:45.016Z,41.53
2023-03-03T17:21:51.554Z,41.53
2023-03-03T17:24:31.410Z,41.42
2023-03-03T17:27:41.379Z,41.48
2023-03-03T17:30:28.208Z,41.48
2023-03-03T17:33:41.218Z,41.79
2023-03-03T17:36:09.307Z,41.80
2023-03-03T17:38:37.486Z,43.16
2023-03-03T17:41:17.305Z,43.10
2023-03-03T17:44:09.469Z,42.80
2023-03-03T17:47:08.403Z,42.55
2023-03-03T17:49:47.120Z,42.12
2023-03-03T17:52:50.419Z,42.53
2023-03-03T17:55:52.464Z,42.92
2023-03-03T17:58:29.463Z,42.66
2023-03-03T18:01:14.116Z,43.49
2023-03-03T18:04:01.173Z,44.09
2023-03-03T18:07:01.654Z,44.34
2023-03-03T18:09:54.977Z,44.41
2023-03-03T18:12:42.988Z,44.26
2023-03-03T18:15:31.203Z,44.84
2023-03-03T18:18:11.855Z,45.49
2023-03-03T18:21:07.714Z,45.85
2023-03-03T18:23:42.431Z,45.99
2023-03-03T18:26:34.680Z,45.72
2023-03-03T18:29:20.214Z,45.76
2023-03-03T18:31:54.344Z,46.22
2023-03-03T18:34:22.110Z,46.30
2023-03-03T18:37:11.731Z,46.43
2023-03-03T18:39:46.201Z,46.35
2023-03-03T18:42:17.861Z,46.58
2023-03-03T18:44:48.052Z,46.90
2023-03-03T18:47:17.656Z,47.22
2023-03-03T18:50:01.813Z,47.13
2023-03-03T18:52:32.604Z,48.13
2023-03-03T18:55:09.552Z,47.87
2023-03-03T18:57:39.100Z,48.04
2023-03-03T19:00:36.740Z,48.42
2023-03-03T19:03:26.214Z,48.18
2023-03-03T19:09:19.310Z,47.89
2023-03-03T19:29:41.890Z,49.43
2023-03-03T19:41:29.209Z,51.40
2023-03-03T19:52:25.331Z,50.18
2023-03-03T19:59:50.055Z,51.16
2023-03-03T20:23:30.807Z,51.85
2023-03-03T20:42:13.833Z,51.17
2023-03-03T20:44:58.012Z,53.87
2023-03-03T20:47:44.917Z,54.53
2023-03-03T20:58:58.898Z,54.11
2023-03-03T21:04:30.956Z,53.32
2023-03-03T21:07:02.202Z,53.02
2023-03-03T21:09:32.884Z,52.71
2023-03-03T21:12:03.345Z,51.70
2023-03-03T21:28:38.329Z,51.55
2023-03-03T21:33:56.909Z,52.76
2023-03-03T21:36:24.487Z,52.21
2023-03-03T21:38:53.609Z,52.63
2023-03-03T21:41:21.572Z,53.31
2023-03-03T21:43:51.409Z,52.94
2023-03-03T21:46:20.653Z,52.64
2023-03-03T21:48:48.864Z,51.93
2023-03-03T21:53:58.501Z,50.84
2023-03-03T21:56:26.003Z,50.90
2023-03-03T21:58:53.332Z,51.42
2023-03-03T22:01:22.314Z,51.94
2023-03-03T22:03:50.151Z,51.78
2023-03-03T22:06:17.912Z,51.84
2023-03-03T22:08:45.948Z,51.77
2023-03-03T22:11:15.534Z,51.84
2023-03-03T22:13:43.168Z,51.72
2023-03-03T22:18:54.345Z,51.43
2023-03-03T22:24:09.542Z,51.28
2023-03-03T22:26:37.061Z,51.19
2023-03-03T22:32:11.096Z,50.68
2023-03-03T22:34:39.206Z,50.68
2023-03-03T22:37:06.775Z,51.67
2023-03-03T22:39:36.441Z,51.47
2023-03-03T22:42:04.348Z,51.72
2023-03-03T22:44:31.895Z,51.91
2023-03-03T22:46:59.580Z,52.30
2023-03-03T22:49:27.325Z,52.40
2023-03-03T22:51:54.838Z,52.59
2023-03-03T22:54:22.201Z,52.40
2023-03-03T22:56:50.041Z,53.31
2023-03-03T22:59:17.656Z,53.66
2023-03-03T23:01:45.057Z,53.23
2023-03-03T23:04:12.752Z,53.16
2023-03-03T23:06:40.144Z,53.00
2023-03-03T23:09:07.880Z,52.93
2023-03-03T23:11:35.722Z,53.19
2023-03-03T23:14:03.125Z,52.86
2023-03-03T23:16:30.646Z,53.00
2023-03-03T23:18:58.480Z,52.94
2023-03-03T23:21:26.269Z,53.15
2023-03-03T23:23:53.771Z,53.01
2023-03-03T23:26:21.580Z,53.60
2023-03-03T23:28:49.064Z,52.80
2023-03-03T23:31:16.786Z,52.99
2023-03-03T23:33:44.597Z,52.93
2023-03-03T23:36:12.352Z,53.32
2023-03-03T23:38:42.634Z,53.30
2023-03-03T23:41:10.883Z,53.87
2023-03-03T23:43:38.309Z,53.73
2023-03-03T23:46:05.716Z,53.23
2023-03-03T23:48:33.634Z,53.41
2023-03-03T23:51:01.530Z,53.46
2023-03-03T23:53:28.923Z,53.85
2023-03-03T23:55:56.634Z,53.28
2023-03-03T23:58:24.017Z,53.16
